Terminal Aerodrome Forecast
Issued by NWS Newport/Morehead City, NC

Home | Current Version | Previous Version | Text Only | Print | Product List | Glossary On
Versions: 1 2 3 4 5 6 7 8 9 10 11 12 13 14
130
FTUS42 KMHX 180557
TAFEWN
TAF
KEWN 180557Z 1806/1906 00000KT P6SM SKC
      TEMPO 1806/1809 1SM BR VV005
     FM180900 00000KT 1SM BR VV005
      TEMPO 1809/1812 3SM BR SCT005
     FM181300 VRB03KT P6SM SCT020
     FM181700 20012G18KT P6SM BKN040=

USA.gov is the U.S. government's official web portal to all federal, state and local government web resources and services.